sensor_id;sensor_type;location;lat;lon;timestamp;temperature;humidity
14585;DHT22;7379;51.506;11.876;2022-07-23T00:00:09;24.00;51.80
14585;DHT22;7379;51.506;11.876;2022-07-23T00:02:37;24.00;51.80
14585;DHT22;7379;51.506;11.876;2022-07-23T00:05:04;23.90;51.80
14585;DHT22;7379;51.506;11.876;2022-07-23T00:07:31;23.90;51.80
14585;DHT22;7379;51.506;11.876;2022-07-23T00:09:58;23.90;51.80
14585;DHT22;7379;51.506;11.876;2022-07-23T00:12:25;23.90;51.90
14585;DHT22;7379;51.506;11.876;2022-07-23T00:14:52;23.90;51.90
14585;DHT22;7379;51.506;11.876;2022-07-23T00:17:19;23.90;51.90
14585;DHT22;7379;51.506;11.876;2022-07-23T00:19:47;23.80;51.90
14585;DHT22;7379;51.506;11.876;2022-07-23T00:22:14;23.80;51.90
14585;DHT22;7379;51.506;11.876;2022-07-23T00:24:40;23.80;51.90
14585;DHT22;7379;51.506;11.876;2022-07-23T00:27:07;23.80;51.90
14585;DHT22;7379;51.506;11.876;2022-07-23T00:29:34;23.80;52.00
14585;DHT22;7379;51.506;11.876;2022-07-23T00:32:01;23.80;52.00
14585;DHT22;7379;51.506;11.876;2022-07-23T00:34:27;23.70;51.90
14585;DHT22;7379;51.506;11.876;2022-07-23T00:36:56;23.70;52.00
14585;DHT22;7379;51.506;11.876;2022-07-23T00:39:22;23.70;52.00
14585;DHT22;7379;51.506;11.876;2022-07-23T00:41:50;23.70;52.00
14585;DHT22;7379;51.506;11.876;2022-07-23T00:44:19;23.70;52.10
14585;DHT22;7379;51.506;11.876;2022-07-23T00:46:48;23.70;52.10
14585;DHT22;7379;51.506;11.876;2022-07-23T00:49:15;23.70;52.20
14585;DHT22;7379;51.506;11.876;2022-07-23T00:51:42;23.60;52.00
14585;DHT22;7379;51.506;11.876;2022-07-23T00:54:11;23.60;52.10
14585;DHT22;7379;51.506;11.876;2022-07-23T00:56:37;23.60;52.10
14585;DHT22;7379;51.506;11.876;2022-07-23T00:59:05;23.60;52.10
14585;DHT22;7379;51.506;11.876;2022-07-23T01:01:32;23.60;52.20
14585;DHT22;7379;51.506;11.876;2022-07-23T01:03:59;23.50;52.10
14585;DHT22;7379;51.506;11.876;2022-07-23T01:06:26;23.50;52.20
14585;DHT22;7379;51.506;11.876;2022-07-23T01:08:54;23.50;52.20
14585;DHT22;7379;51.506;11.876;2022-07-23T01:11:23;23.50;52.20
14585;DHT22;7379;51.506;11.876;2022-07-23T01:13:51;23.50;52.20
14585;DHT22;7379;51.506;11.876;2022-07-23T01:16:17;23.50;52.20
14585;DHT22;7379;51.506;11.876;2022-07-23T01:18:44;23.40;52.20
14585;DHT22;7379;51.506;11.876;2022-07-23T01:21:12;23.40;52.20
14585;DHT22;7379;51.506;11.876;2022-07-23T01:23:41;23.40;52.90
14585;DHT22;7379;51.506;11.876;2022-07-23T01:26:07;23.40;52.30
14585;DHT22;7379;51.506;11.876;2022-07-23T01:28:34;23.40;52.30
14585;DHT22;7379;51.506;11.876;2022-07-23T01:31:01;23.40;52.40
14585;DHT22;7379;51.506;11.876;2022-07-23T01:33:28;23.40;52.40
14585;DHT22;7379;51.506;11.876;2022-07-23T01:35:55;23.40;52.40
14585;DHT22;7379;51.506;11.876;2022-07-23T01:38:21;23.30;52.30
14585;DHT22;7379;51.506;11.876;2022-07-23T01:40:49;23.30;52.30
14585;DHT22;7379;51.506;11.876;2022-07-23T01:43:16;23.30;52.40
14585;DHT22;7379;51.506;11.876;2022-07-23T01:45:43;23.30;52.40
14585;DHT22;7379;51.506;11.876;2022-07-23T01:48:10;23.30;52.50
14585;DHT22;7379;51.506;11.876;2022-07-23T01:50:37;23.30;52.50
14585;DHT22;7379;51.506;11.876;2022-07-23T01:53:03;23.30;52.50
14585;DHT22;7379;51.506;11.876;2022-07-23T01:55:30;23.20;52.50
14585;DHT22;7379;51.506;11.876;2022-07-23T01:57:58;23.20;52.60
14585;DHT22;7379;51.506;11.876;2022-07-23T02:00:25;23.20;52.60
14585;DHT22;7379;51.506;11.876;2022-07-23T02:02:52;23.20;52.70
14585;DHT22;7379;51.506;11.876;2022-07-23T02:05:19;23.20;52.70
14585;DHT22;7379;51.506;11.876;2022-07-23T02:07:45;23.20;52.80
14585;DHT22;7379;51.506;11.876;2022-07-23T02:10:12;23.10;52.80
14585;DHT22;7379;51.506;11.876;2022-07-23T02:12:39;23.10;52.80
14585;DHT22;7379;51.506;11.876;2022-07-23T02:15:08;23.10;52.90
14585;DHT22;7379;51.506;11.876;2022-07-23T02:17:35;23.10;52.90
14585;DHT22;7379;51.506;11.876;2022-07-23T02:20:02;23.00;52.80
14585;DHT22;7379;51.506;11.876;2022-07-23T02:22:29;23.00;52.80
14585;DHT22;7379;51.506;11.876;2022-07-23T02:24:56;23.00;53.00
14585;DHT22;7379;51.506;11.876;2022-07-23T02:27:22;23.00;53.00
14585;DHT22;7379;51.506;11.876;2022-07-23T02:29:49;23.00;53.00
14585;DHT22;7379;51.506;11.876;2022-07-23T02:32:17;23.00;53.00
14585;DHT22;7379;51.506;11.876;2022-07-23T02:34:44;23.00;53.10
14585;DHT22;7379;51.506;11.876;2022-07-23T02:37:11;23.00;53.20
14585;DHT22;7379;51.506;11.876;2022-07-23T02:39:38;23.00;53.20
14585;DHT22;7379;51.506;11.876;2022-07-23T02:42:05;22.90;53.10
14585;DHT22;7379;51.506;11.876;2022-07-23T02:44:32;22.90;53.20
14585;DHT22;7379;51.506;11.876;2022-07-23T02:46:58;22.90;53.20
14585;DHT22;7379;51.506;11.876;2022-07-23T02:49:27;22.90;53.30
14585;DHT22;7379;51.506;11.876;2022-07-23T02:51:54;22.90;53.30
14585;DHT22;7379;51.506;11.876;2022-07-23T02:54:20;22.90;53.40
14585;DHT22;7379;51.506;11.876;2022-07-23T02:56:47;22.90;53.40
14585;DHT22;7379;51.506;11.876;2022-07-23T02:59:16;22.80;53.30
14585;DHT22;7379;51.506;11.876;2022-07-23T03:01:43;22.80;53.40
14585;DHT22;7379;51.506;11.876;2022-07-23T03:04:10;22.80;53.50
14585;DHT22;7379;51.506;11.876;2022-07-23T03:06:38;22.80;53.50
14585;DHT22;7379;51.506;11.876;2022-07-23T03:09:06;22.80;53.50
14585;DHT22;7379;51.506;11.876;2022-07-23T03:11:33;22.80;53.50
14585;DHT22;7379;51.506;11.876;2022-07-23T03:13:59;22.80;53.50
14585;DHT22;7379;51.506;11.876;2022-07-23T03:16:26;22.80;53.60
14585;DHT22;7379;51.506;11.876;2022-07-23T03:18:53;22.70;53.50
14585;DHT22;7379;51.506;11.876;2022-07-23T03:21:20;22.70;53.50
14585;DHT22;7379;51.506;11.876;2022-07-23T03:23:48;22.70;53.50
14585;DHT22;7379;51.506;11.876;2022-07-23T03:26:15;22.70;53.60
14585;DHT22;7379;51.506;11.876;2022-07-23T03:28:41;22.70;53.60
14585;DHT22;7379;51.506;11.876;2022-07-23T03:31:08;22.60;53.50
14585;DHT22;7379;51.506;11.876;2022-07-23T03:33:35;22.60;53.60
14585;DHT22;7379;51.506;11.876;2022-07-23T03:36:02;22.60;53.60
14585;DHT22;7379;51.506;11.876;2022-07-23T03:38:29;22.60;53.60
14585;DHT22;7379;51.506;11.876;2022-07-23T03:40:57;22.60;53.70
14585;DHT22;7379;51.506;11.876;2022-07-23T03:43:24;22.60;53.80
14585;DHT22;7379;51.506;11.876;2022-07-23T03:45:51;22.60;53.80
14585;DHT22;7379;51.506;11.876;2022-07-23T03:48:18;22.60;53.90
14585;DHT22;7379;51.506;11.876;2022-07-23T03:50:45;22.60;53.90
14585;DHT22;7379;51.506;11.876;2022-07-23T03:53:12;22.50;53.80
14585;DHT22;7379;51.506;11.876;2022-07-23T03:55:39;22.50;53.90
14585;DHT22;7379;51.506;11.876;2022-07-23T03:58:07;22.50;54.10
14585;DHT22;7379;51.506;11.876;2022-07-23T04:00:34;22.50;54.40
14585;DHT22;7379;51.506;11.876;2022-07-23T04:03:00;22.50;54.60
14585;DHT22;7379;51.506;11.876;2022-07-23T04:05:28;22.50;54.70
14585;DHT22;7379;51.506;11.876;2022-07-23T04:07:55;22.50;54.90
14585;DHT22;7379;51.506;11.876;2022-07-23T04:10:22;22.40;55.00
14585;DHT22;7379;51.506;11.876;2022-07-23T04:12:49;22.40;55.10
14585;DHT22;7379;51.506;11.876;2022-07-23T04:15:17;22.40;55.30
14585;DHT22;7379;51.506;11.876;2022-07-23T04:17:43;22.40;55.60
14585;DHT22;7379;51.506;11.876;2022-07-23T04:20:12;22.40;55.90
14585;DHT22;7379;51.506;11.876;2022-07-23T04:22:39;22.40;55.90
14585;DHT22;7379;51.506;11.876;2022-07-23T04:25:06;22.40;56.10
14585;DHT22;7379;51.506;11.876;2022-07-23T04:27:33;22.40;56.20
14585;DHT22;7379;51.506;11.876;2022-07-23T04:30:00;22.30;56.20
14585;DHT22;7379;51.506;11.876;2022-07-23T04:32:28;22.30;56.40
14585;DHT22;7379;51.506;11.876;2022-07-23T04:34:55;22.30;56.50
14585;DHT22;7379;51.506;11.876;2022-07-23T04:37:21;22.30;57.30
14585;DHT22;7379;51.506;11.876;2022-07-23T04:39:48;22.30;56.60
14585;DHT22;7379;51.506;11.876;2022-07-23T04:42:15;22.30;56.80
14585;DHT22;7379;51.506;11.876;2022-07-23T04:44:42;22.30;56.90
14585;DHT22;7379;51.506;11.876;2022-07-23T04:47:08;22.30;56.90
14585;DHT22;7379;51.506;11.876;2022-07-23T04:49:37;22.30;57.10
14585;DHT22;7379;51.506;11.876;2022-07-23T04:52:04;22.20;57.10
14585;DHT22;7379;51.506;11.876;2022-07-23T04:54:31;22.20;57.20
14585;DHT22;7379;51.506;11.876;2022-07-23T04:56:57;22.20;57.30
14585;DHT22;7379;51.506;11.876;2022-07-23T04:59:24;22.20;57.40
14585;DHT22;7379;51.506;11.876;2022-07-23T05:01:51;22.20;57.40
14585;DHT22;7379;51.506;11.876;2022-07-23T05:04:18;22.20;57.60
14585;DHT22;7379;51.506;11.876;2022-07-23T05:06:46;22.20;57.60
14585;DHT22;7379;51.506;11.876;2022-07-23T05:09:13;22.20;57.70
14585;DHT22;7379;51.506;11.876;2022-07-23T05:11:39;22.20;57.70
14585;DHT22;7379;51.506;11.876;2022-07-23T05:14:06;22.10;57.80
14585;DHT22;7379;51.506;11.876;2022-07-23T05:16:33;22.10;57.80
14585;DHT22;7379;51.506;11.876;2022-07-23T05:19:00;22.10;57.80
14585;DHT22;7379;51.506;11.876;2022-07-23T05:21:26;22.10;57.90
14585;DHT22;7379;51.506;11.876;2022-07-23T05:23:55;22.10;58.00
14585;DHT22;7379;51.506;11.876;2022-07-23T05:26:21;22.10;58.10
14585;DHT22;7379;51.506;11.876;2022-07-23T05:28:48;22.10;58.20
14585;DHT22;7379;51.506;11.876;2022-07-23T05:31:15;22.10;58.20
14585;DHT22;7379;51.506;11.876;2022-07-23T05:33:42;22.10;58.30
14585;DHT22;7379;51.506;11.876;2022-07-23T05:36:09;22.00;58.20
14585;DHT22;7379;51.506;11.876;2022-07-23T05:38:36;22.00;58.20
14585;DHT22;7379;51.506;11.876;2022-07-23T05:41:05;22.00;58.30
14585;DHT22;7379;51.506;11.876;2022-07-23T05:43:32;22.00;58.30
14585;DHT22;7379;51.506;11.876;2022-07-23T05:45:58;22.00;58.40
14585;DHT22;7379;51.506;11.876;2022-07-23T05:48:25;22.00;58.40
14585;DHT22;7379;51.506;11.876;2022-07-23T05:50:52;22.00;58.60
14585;DHT22;7379;51.506;11.876;2022-07-23T05:53:19;21.90;58.50
14585;DHT22;7379;51.506;11.876;2022-07-23T05:55:46;21.90;58.60
14585;DHT22;7379;51.506;11.876;2022-07-23T05:58:14;22.00;58.70
14585;DHT22;7379;51.506;11.876;2022-07-23T06:00:40;21.90;58.70
14585;DHT22;7379;51.506;11.876;2022-07-23T06:03:07;21.90;58.80
14585;DHT22;7379;51.506;11.876;2022-07-23T06:05:34;21.90;58.80
14585;DHT22;7379;51.506;11.876;2022-07-23T06:08:01;21.90;58.80
14585;DHT22;7379;51.506;11.876;2022-07-23T06:10:28;21.90;59.00
14585;DHT22;7379;51.506;11.876;2022-07-23T06:12:54;21.90;58.90
14585;DHT22;7379;51.506;11.876;2022-07-23T06:15:22;21.90;59.00
14585;DHT22;7379;51.506;11.876;2022-07-23T06:17:49;21.80;59.00
14585;DHT22;7379;51.506;11.876;2022-07-23T06:20:16;21.80;59.10
14585;DHT22;7379;51.506;11.876;2022-07-23T06:22:43;21.80;59.20
14585;DHT22;7379;51.506;11.876;2022-07-23T06:25:10;21.80;59.20
14585;DHT22;7379;51.506;11.876;2022-07-23T06:27:36;21.80;59.20
14585;DHT22;7379;51.506;11.876;2022-07-23T06:30:04;21.80;59.30
14585;DHT22;7379;51.506;11.876;2022-07-23T06:32:32;21.80;59.30
14585;DHT22;7379;51.506;11.876;2022-07-23T06:34:59;21.80;59.50
14585;DHT22;7379;51.506;11.876;2022-07-23T06:37:26;21.80;59.40
14585;DHT22;7379;51.506;11.876;2022-07-23T06:39:52;21.80;59.50
14585;DHT22;7379;51.506;11.876;2022-07-23T06:42:19;21.80;59.50
14585;DHT22;7379;51.506;11.876;2022-07-23T06:44:46;21.80;59.70
14585;DHT22;7379;51.506;11.876;2022-07-23T06:47:13;21.80;59.70
14585;DHT22;7379;51.506;11.876;2022-07-23T06:49:41;21.80;59.80
14585;DHT22;7379;51.506;11.876;2022-07-23T06:52:08;21.80;59.80
14585;DHT22;7379;51.506;11.876;2022-07-23T06:54:34;21.80;59.80
14585;DHT22;7379;51.506;11.876;2022-07-23T06:57:01;21.70;59.70
14585;DHT22;7379;51.506;11.876;2022-07-23T06:59:28;21.70;59.80
14585;DHT22;7379;51.506;11.876;2022-07-23T07:01:55;21.70;59.90
14585;DHT22;7379;51.506;11.876;2022-07-23T07:04:23;21.70;59.90
14585;DHT22;7379;51.506;11.876;2022-07-23T07:06:51;21.70;60.00
14585;DHT22;7379;51.506;11.876;2022-07-23T07:09:18;21.70;60.10
14585;DHT22;7379;51.506;11.876;2022-07-23T07:11:44;21.70;60.10
14585;DHT22;7379;51.506;11.876;2022-07-23T07:14:11;21.70;60.20
14585;DHT22;7379;51.506;11.876;2022-07-23T07:16:38;21.60;60.00
14585;DHT22;7379;51.506;11.876;2022-07-23T07:19:05;21.70;60.20
14585;DHT22;7379;51.506;11.876;2022-07-23T07:21:31;21.60;60.20
14585;DHT22;7379;51.506;11.876;2022-07-23T07:24:00;21.60;60.20
14585;DHT22;7379;51.506;11.876;2022-07-23T07:26:26;21.70;60.40
14585;DHT22;7379;51.506;11.876;2022-07-23T07:28:53;21.60;60.20
14585;DHT22;7379;51.506;11.876;2022-07-23T07:34:42;21.60;60.40
14585;DHT22;7379;51.506;11.876;2022-07-23T07:37:09;21.60;60.50
14585;DHT22;7379;51.506;11.876;2022-07-23T07:39:37;21.60;60.50
14585;DHT22;7379;51.506;11.876;2022-07-23T07:42:05;21.60;60.50
14585;DHT22;7379;51.506;11.876;2022-07-23T07:44:31;21.60;60.60
14585;DHT22;7379;51.506;11.876;2022-07-23T07:46:58;21.60;60.60
14585;DHT22;7379;51.506;11.876;2022-07-23T07:49:25;21.60;60.70
14585;DHT22;7379;51.506;11.876;2022-07-23T07:51:52;21.60;60.80
14585;DHT22;7379;51.506;11.876;2022-07-23T07:54:19;21.50;60.70
14585;DHT22;7379;51.506;11.876;2022-07-23T07:56:47;21.50;60.70
14585;DHT22;7379;51.506;11.876;2022-07-23T07:59:14;21.50;60.70
14585;DHT22;7379;51.506;11.876;2022-07-23T08:01:41;21.60;60.80
14585;DHT22;7379;51.506;11.876;2022-07-23T08:04:07;21.50;60.90
14585;DHT22;7379;51.506;11.876;2022-07-23T08:06:34;21.60;61.10
14585;DHT22;7379;51.506;11.876;2022-07-23T08:09:01;21.50;61.00
14585;DHT22;7379;51.506;11.876;2022-07-23T08:11:28;21.60;61.20
14585;DHT22;7379;51.506;11.876;2022-07-23T08:13:56;21.60;62.00
14585;DHT22;7379;51.506;11.876;2022-07-23T08:16:23;21.50;61.40
14585;DHT22;7379;51.506;11.876;2022-07-23T08:18:49;21.50;61.40
14585;DHT22;7379;51.506;11.876;2022-07-23T08:21:16;21.50;61.20
14585;DHT22;7379;51.506;11.876;2022-07-23T08:23:43;21.50;61.40
14585;DHT22;7379;51.506;11.876;2022-07-23T08:26:10;21.50;61.40
14585;DHT22;7379;51.506;11.876;2022-07-23T08:28:37;21.50;61.50
14585;DHT22;7379;51.506;11.876;2022-07-23T08:31:05;21.50;61.50
14585;DHT22;7379;51.506;11.876;2022-07-23T08:33:32;21.50;61.50
14585;DHT22;7379;51.506;11.876;2022-07-23T08:35:59;21.40;61.50
14585;DHT22;7379;51.506;11.876;2022-07-23T08:38:25;21.40;61.40
14585;DHT22;7379;51.506;11.876;2022-07-23T08:40:55;21.40;61.40
14585;DHT22;7379;51.506;11.876;2022-07-23T08:43:25;21.40;61.50
14585;DHT22;7379;51.506;11.876;2022-07-23T08:45:53;21.50;61.60
14585;DHT22;7379;51.506;11.876;2022-07-23T08:48:25;21.50;61.60
14585;DHT22;7379;51.506;11.876;2022-07-23T08:50:53;21.40;61.60
14585;DHT22;7379;51.506;11.876;2022-07-23T08:53:21;21.40;61.60
14585;DHT22;7379;51.506;11.876;2022-07-23T08:55:49;21.40;61.60
14585;DHT22;7379;51.506;11.876;2022-07-23T08:58:17;21.40;61.60
14585;DHT22;7379;51.506;11.876;2022-07-23T09:00:44;21.40;61.60
14585;DHT22;7379;51.506;11.876;2022-07-23T09:03:15;21.40;61.70
14585;DHT22;7379;51.506;11.876;2022-07-23T09:05:44;21.40;61.70
14585;DHT22;7379;51.506;11.876;2022-07-23T09:08:13;21.40;61.70
14585;DHT22;7379;51.506;11.876;2022-07-23T09:10:45;21.40;61.60
14585;DHT22;7379;51.506;11.876;2022-07-23T09:13:24;21.40;61.60
14585;DHT22;7379;51.506;11.876;2022-07-23T09:15:52;21.40;61.70
14585;DHT22;7379;51.506;11.876;2022-07-23T09:18:19;21.40;61.60
14585;DHT22;7379;51.506;11.876;2022-07-23T09:20:47;21.40;61.80
14585;DHT22;7379;51.506;11.876;2022-07-23T09:23:13;21.40;61.80
14585;DHT22;7379;51.506;11.876;2022-07-23T09:25:40;21.40;61.90
14585;DHT22;7379;51.506;11.876;2022-07-23T09:28:07;21.40;61.90
14585;DHT22;7379;51.506;11.876;2022-07-23T09:30:34;21.40;61.90
14585;DHT22;7379;51.506;11.876;2022-07-23T09:33:06;21.40;61.90
14585;DHT22;7379;51.506;11.876;2022-07-23T09:35:49;21.40;61.90
14585;DHT22;7379;51.506;11.876;2022-07-23T09:38:18;21.40;61.90
14585;DHT22;7379;51.506;11.876;2022-07-23T09:40:45;21.40;62.00
14585;DHT22;7379;51.506;11.876;2022-07-23T09:43:25;21.40;62.00
14585;DHT22;7379;51.506;11.876;2022-07-23T09:45:53;21.40;62.10
14585;DHT22;7379;51.506;11.876;2022-07-23T09:48:21;21.40;62.20
14585;DHT22;7379;51.506;11.876;2022-07-23T09:50:51;21.40;62.20
14585;DHT22;7379;51.506;11.876;2022-07-23T09:53:24;21.40;62.30
14585;DHT22;7379;51.506;11.876;2022-07-23T09:55:51;21.30;62.00
14585;DHT22;7379;51.506;11.876;2022-07-23T09:58:21;21.40;62.30
14585;DHT22;7379;51.506;11.876;2022-07-23T10:00:50;21.40;63.20
14585;DHT22;7379;51.506;11.876;2022-07-23T10:03:17;21.40;62.90
14585;DHT22;7379;51.506;11.876;2022-07-23T10:05:46;21.40;63.00
14585;DHT22;7379;51.506;11.876;2022-07-23T10:08:18;21.40;62.50
14585;DHT22;7379;51.506;11.876;2022-07-23T10:10:46;21.40;62.40
14585;DHT22;7379;51.506;11.876;2022-07-23T10:13:14;21.40;62.30
14585;DHT22;7379;51.506;11.876;2022-07-23T10:15:54;21.40;62.30
14585;DHT22;7379;51.506;11.876;2022-07-23T10:18:21;21.40;62.50
14585;DHT22;7379;51.506;11.876;2022-07-23T10:20:48;21.40;62.30
14585;DHT22;7379;51.506;11.876;2022-07-23T10:23:24;21.40;62.30
14585;DHT22;7379;51.506;11.876;2022-07-23T10:25:58;21.40;62.30
14585;DHT22;7379;51.506;11.876;2022-07-23T10:28:42;21.40;62.30
14585;DHT22;7379;51.506;11.876;2022-07-23T10:31:28;21.40;62.20
14585;DHT22;7379;51.506;11.876;2022-07-23T10:34:05;21.40;62.40
14585;DHT22;7379;51.506;11.876;2022-07-23T10:36:42;21.40;62.50
14585;DHT22;7379;51.506;11.876;2022-07-23T10:39:17;21.40;63.30
14585;DHT22;7379;51.506;11.876;2022-07-23T10:41:45;21.40;63.10
14585;DHT22;7379;51.506;11.876;2022-07-23T10:44:14;21.50;63.00
14585;DHT22;7379;51.506;11.876;2022-07-23T10:46:58;21.50;62.60
14585;DHT22;7379;51.506;11.876;2022-07-23T10:49:39;21.50;62.50
14585;DHT22;7379;51.506;11.876;2022-07-23T10:52:22;21.50;62.50
14585;DHT22;7379;51.506;11.876;2022-07-23T10:54:53;21.50;62.30
14585;DHT22;7379;51.506;11.876;2022-07-23T10:57:21;21.50;62.30
14585;DHT22;7379;51.506;11.876;2022-07-23T11:00:20;21.50;62.30
14585;DHT22;7379;51.506;11.876;2022-07-23T11:02:49;21.50;63.00
14585;DHT22;7379;51.506;11.876;2022-07-23T11:05:18;21.50;63.50
14585;DHT22;7379;51.506;11.876;2022-07-23T11:08:11;21.60;62.80
14585;DHT22;7379;51.506;11.876;2022-07-23T11:10:43;21.60;63.10
14585;DHT22;7379;51.506;11.876;2022-07-23T11:13:29;21.60;62.30
14585;DHT22;7379;51.506;11.876;2022-07-23T11:16:22;21.60;62.10
14585;DHT22;7379;51.506;11.876;2022-07-23T11:19:03;21.60;62.10
14585;DHT22;7379;51.506;11.876;2022-07-23T11:21:48;21.60;62.00
14585;DHT22;7379;51.506;11.876;2022-07-23T11:24:18;21.60;61.90
14585;DHT22;7379;51.506;11.876;2022-07-23T11:26:58;21.60;62.50
14585;DHT22;7379;51.506;11.876;2022-07-23T11:29:41;21.60;62.00
14585;DHT22;7379;51.506;11.876;2022-07-23T11:35:01;21.70;63.10
14585;DHT22;7379;51.506;11.876;2022-07-23T11:37:33;21.70;63.40
14585;DHT22;7379;51.506;11.876;2022-07-23T11:40:03;21.70;63.00
14585;DHT22;7379;51.506;11.876;2022-07-23T11:42:32;21.70;62.60
14585;DHT22;7379;51.506;11.876;2022-07-23T11:44:58;21.80;63.00
14585;DHT22;7379;51.506;11.876;2022-07-23T11:47:26;21.80;62.90
14585;DHT22;7379;51.506;11.876;2022-07-23T11:49:54;21.90;63.50
14585;DHT22;7379;51.506;11.876;2022-07-23T11:52:21;21.90;62.60
14585;DHT22;7379;51.506;11.876;2022-07-23T11:54:51;21.90;62.80
14585;DHT22;7379;51.506;11.876;2022-07-23T11:57:18;21.90;63.00
14585;DHT22;7379;51.506;11.876;2022-07-23T11:59:51;22.00;63.20
14585;DHT22;7379;51.506;11.876;2022-07-23T12:02:20;21.90;62.60
14585;DHT22;7379;51.506;11.876;2022-07-23T12:04:49;21.90;62.40
14585;DHT22;7379;51.506;11.876;2022-07-23T12:07:30;21.90;62.20
14585;DHT22;7379;51.506;11.876;2022-07-23T12:10:00;21.90;62.20
14585;DHT22;7379;51.506;11.876;2022-07-23T12:12:27;21.90;62.70
14585;DHT22;7379;51.506;11.876;2022-07-23T12:15:03;21.90;62.30
14585;DHT22;7379;51.506;11.876;2022-07-23T12:17:32;22.00;62.40
14585;DHT22;7379;51.506;11.876;2022-07-23T12:20:00;22.10;63.00
14585;DHT22;7379;51.506;11.876;2022-07-23T12:22:34;22.10;62.70
14585;DHT22;7379;51.506;11.876;2022-07-23T12:25:05;22.20;62.70
14585;DHT22;7379;51.506;11.876;2022-07-23T12:27:32;22.30;62.30
14585;DHT22;7379;51.506;11.876;2022-07-23T12:32:55;22.40;61.30
14585;DHT22;7379;51.506;11.876;2022-07-23T12:35:30;22.50;61.30
14585;DHT22;7379;51.506;11.876;2022-07-23T12:38:00;22.60;61.50
14585;DHT22;7379;51.506;11.876;2022-07-23T12:40:29;22.70;60.90
14585;DHT22;7379;51.506;11.876;2022-07-23T12:42:59;22.80;62.20
14585;DHT22;7379;51.506;11.876;2022-07-23T12:45:29;23.10;61.80
14585;DHT22;7379;51.506;11.876;2022-07-23T12:48:16;23.10;60.90
14585;DHT22;7379;51.506;11.876;2022-07-23T12:50:44;23.30;60.00
14585;DHT22;7379;51.506;11.876;2022-07-23T12:53:16;23.10;60.00
14585;DHT22;7379;51.506;11.876;2022-07-23T12:55:44;23.00;60.70
14585;DHT22;7379;51.506;11.876;2022-07-23T12:58:13;23.00;60.90
14585;DHT22;7379;51.506;11.876;2022-07-23T13:00:53;22.90;60.80
14585;DHT22;7379;51.506;11.876;2022-07-23T13:03:22;22.90;61.00
14585;DHT22;7379;51.506;11.876;2022-07-23T13:05:49;22.90;61.60
14585;DHT22;7379;51.506;11.876;2022-07-23T13:08:16;22.90;61.70
14585;DHT22;7379;51.506;11.876;2022-07-23T13:10:43;22.90;61.90
14585;DHT22;7379;51.506;11.876;2022-07-23T13:13:12;22.90;61.40
14585;DHT22;7379;51.506;11.876;2022-07-23T13:15:39;22.80;61.40
14585;DHT22;7379;51.506;11.876;2022-07-23T13:18:06;22.90;61.20
14585;DHT22;7379;51.506;11.876;2022-07-23T13:20:34;22.90;61.50
14585;DHT22;7379;51.506;11.876;2022-07-23T13:23:02;23.00;61.40
14585;DHT22;7379;51.506;11.876;2022-07-23T13:25:28;23.30;60.70
14585;DHT22;7379;51.506;11.876;2022-07-23T13:27:55;23.50;59.80
14585;DHT22;7379;51.506;11.876;2022-07-23T13:30:22;23.50;59.60
14585;DHT22;7379;51.506;11.876;2022-07-23T13:32:49;23.50;60.00
14585;DHT22;7379;51.506;11.876;2022-07-23T13:35:16;23.70;59.70
14585;DHT22;7379;51.506;11.876;2022-07-23T13:41:06;24.00;59.10
14585;DHT22;7379;51.506;11.876;2022-07-23T13:43:33;24.10;58.40
14585;DHT22;7379;51.506;11.876;2022-07-23T13:46:00;24.00;58.90
14585;DHT22;7379;51.506;11.876;2022-07-23T13:48:26;23.90;58.70
14585;DHT22;7379;51.506;11.876;2022-07-23T13:50:54;23.80;58.90
14585;DHT22;7379;51.506;11.876;2022-07-23T13:53:23;23.80;59.20
14585;DHT22;7379;51.506;11.876;2022-07-23T13:55:52;24.00;59.30
14585;DHT22;7379;51.506;11.876;2022-07-23T13:58:21;24.10;58.60
14585;DHT22;7379;51.506;11.876;2022-07-23T14:00:51;24.10;59.30
14585;DHT22;7379;51.506;11.876;2022-07-23T14:03:20;24.20;58.60
14585;DHT22;7379;51.506;11.876;2022-07-23T14:05:48;24.30;58.30
14585;DHT22;7379;51.506;11.876;2022-07-23T14:08:15;24.20;58.30
14585;DHT22;7379;51.506;11.876;2022-07-23T14:10:42;24.30;57.90
14585;DHT22;7379;51.506;11.876;2022-07-23T14:13:08;24.30;57.60
14585;DHT22;7379;51.506;11.876;2022-07-23T14:15:36;24.30;57.30
14585;DHT22;7379;51.506;11.876;2022-07-23T14:18:06;24.20;57.90
14585;DHT22;7379;51.506;11.876;2022-07-23T14:20:33;24.10;57.90
14585;DHT22;7379;51.506;11.876;2022-07-23T14:23:00;24.20;58.20
14585;DHT22;7379;51.506;11.876;2022-07-23T14:25:27;24.10;58.20
14585;DHT22;7379;51.506;11.876;2022-07-23T14:27:54;24.00;58.30
14585;DHT22;7379;51.506;11.876;2022-07-23T14:30:21;23.90;58.40
14585;DHT22;7379;51.506;11.876;2022-07-23T14:32:50;23.90;59.10
14585;DHT22;7379;51.506;11.876;2022-07-23T14:35:17;23.80;58.90
14585;DHT22;7379;51.506;11.876;2022-07-23T14:37:44;23.80;58.90
14585;DHT22;7379;51.506;11.876;2022-07-23T14:40:11;23.90;59.10
14585;DHT22;7379;51.506;11.876;2022-07-23T14:42:38;24.00;58.60
14585;DHT22;7379;51.506;11.876;2022-07-23T14:45:06;24.10;58.30
14585;DHT22;7379;51.506;11.876;2022-07-23T14:47:33;24.10;58.20
14585;DHT22;7379;51.506;11.876;2022-07-23T14:50:01;24.10;58.20
14585;DHT22;7379;51.506;11.876;2022-07-23T14:52:28;24.20;58.00
14585;DHT22;7379;51.506;11.876;2022-07-23T14:54:55;24.40;57.60
14585;DHT22;7379;51.506;11.876;2022-07-23T14:57:21;24.60;57.20
14585;DHT22;7379;51.506;11.876;2022-07-23T14:59:48;24.70;57.00
14585;DHT22;7379;51.506;11.876;2022-07-23T15:02:15;24.90;56.50
14585;DHT22;7379;51.506;11.876;2022-07-23T15:04:42;25.10;56.10
14585;DHT22;7379;51.506;11.876;2022-07-23T15:07:10;25.20;55.60
14585;DHT22;7379;51.506;11.876;2022-07-23T15:09:37;25.30;55.30
14585;DHT22;7379;51.506;11.876;2022-07-23T15:12:04;25.40;55.10
14585;DHT22;7379;51.506;11.876;2022-07-23T15:14:31;25.30;55.00
14585;DHT22;7379;51.506;11.876;2022-07-23T15:16:58;25.20;55.40
14585;DHT22;7379;51.506;11.876;2022-07-23T15:19:25;25.50;54.40
14585;DHT22;7379;51.506;11.876;2022-07-23T15:21:52;25.50;54.30
14585;DHT22;7379;51.506;11.876;2022-07-23T15:24:20;25.30;54.60
14585;DHT22;7379;51.506;11.876;2022-07-23T15:26:47;25.20;55.10
14585;DHT22;7379;51.506;11.876;2022-07-23T15:29:13;25.00;55.20
14585;DHT22;7379;51.506;11.876;2022-07-23T15:31:40;24.90;55.40
14585;DHT22;7379;51.506;11.876;2022-07-23T15:34:07;24.90;55.20
14585;DHT22;7379;51.506;11.876;2022-07-23T15:36:34;25.00;55.10
14585;DHT22;7379;51.506;11.876;2022-07-23T15:39:01;25.20;54.90
14585;DHT22;7379;51.506;11.876;2022-07-23T15:41:29;25.10;55.00
14585;DHT22;7379;51.506;11.876;2022-07-23T15:43:56;25.30;54.60
14585;DHT22;7379;51.506;11.876;2022-07-23T15:46:23;25.40;54.10
14585;DHT22;7379;51.506;11.876;2022-07-23T15:48:50;25.30;54.50